createdAt,value
2017-08-14T00:00:01.338Z,0
2017-08-14T00:01:03.045Z,0
2017-08-14T00:02:04.769Z,0
2017-08-14T00:03:07.087Z,0
2017-08-14T00:04:09.425Z,0
2017-08-14T00:05:11.334Z,0
2017-08-14T00:06:13.093Z,0
2017-08-14T00:07:15.057Z,0
2017-08-14T00:08:16.774Z,0
2017-08-14T00:09:18.654Z,0
2017-08-14T00:10:20.402Z,0
2017-08-14T00:11:22.316Z,0
2017-08-14T00:12:24.060Z,0
2017-08-14T00:13:25.790Z,0
2017-08-14T00:14:27.842Z,0
2017-08-14T00:15:29.927Z,0
2017-08-14T00:16:31.656Z,0
2017-08-14T00:17:33.361Z,0
2017-08-14T00:18:35.068Z,0
2017-08-14T00:19:36.806Z,0
2017-08-14T00:20:38.511Z,0
2017-08-14T00:21:40.310Z,0
2017-08-14T00:22:42.168Z,0
2017-08-14T00:23:44.343Z,0
2017-08-14T00:24:45.989Z,0
2017-08-14T00:25:47.761Z,0
2017-08-14T00:26:49.476Z,0
2017-08-14T00:27:51.581Z,0
2017-08-14T00:28:53.304Z,0
2017-08-14T00:29:55.020Z,0
2017-08-14T00:30:56.675Z,0
2017-08-14T00:31:58.392Z,0
2017-08-14T00:33:00.179Z,0
2017-08-14T00:34:01.894Z,0
2017-08-14T00:35:03.713Z,0
2017-08-14T00:36:05.466Z,0
2017-08-14T00:37:07.203Z,0
2017-08-14T00:38:08.869Z,0
2017-08-14T00:39:10.697Z,0
2017-08-14T00:40:12.415Z,0
2017-08-14T00:41:14.135Z,0
2017-08-14T00:42:15.786Z,0
2017-08-14T00:43:17.445Z,0
2017-08-14T00:44:19.249Z,0
2017-08-14T00:45:20.893Z,0
2017-08-14T00:46:22.736Z,0
2017-08-14T00:47:25.610Z,0
2017-08-14T00:48:27.460Z,0
2017-08-14T00:49:29.106Z,0
2017-08-14T00:50:30.755Z,0
2017-08-14T00:51:32.568Z,0
2017-08-14T00:52:35.047Z,0
2017-08-14T00:53:36.638Z,0
2017-08-14T00:54:38.282Z,0
2017-08-14T00:55:41.130Z,0
2017-08-14T00:56:43.071Z,0
2017-08-14T00:57:44.716Z,0
2017-08-14T00:58:46.360Z,0
2017-08-14T00:59:48.003Z,0
2017-08-14T01:00:49.650Z,0
2017-08-14T01:01:51.301Z,0
2017-08-14T01:02:53.136Z,0
2017-08-14T01:03:54.785Z,0
2017-08-14T01:04:56.435Z,0
2017-08-14T01:05:58.084Z,0
2017-08-14T01:06:59.753Z,0
2017-08-14T01:08:01.496Z,0
2017-08-14T01:09:03.164Z,0
2017-08-14T01:10:04.888Z,0
2017-08-14T01:11:06.570Z,0
2017-08-14T01:12:08.270Z,0
2017-08-14T01:13:09.916Z,0
2017-08-14T01:14:12.606Z,0
2017-08-14T01:15:14.250Z,0
2017-08-14T01:16:15.983Z,0
2017-08-14T01:17:17.660Z,0
2017-08-14T01:18:19.382Z,0
2017-08-14T01:19:21.056Z,0
2017-08-14T01:20:22.702Z,0
2017-08-14T01:21:24.351Z,0
2017-08-14T01:22:25.992Z,0
2017-08-14T01:23:27.638Z,0
2017-08-14T01:24:29.285Z,0
2017-08-14T01:25:30.931Z,0
2017-08-14T01:26:32.603Z,0
2017-08-14T01:27:34.256Z,0
2017-08-14T01:28:36.089Z,0
2017-08-14T01:29:37.766Z,0
2017-08-14T01:30:39.407Z,0
2017-08-14T01:31:41.195Z,0
2017-08-14T01:32:42.848Z,0
2017-08-14T01:33:44.560Z,0
2017-08-14T01:34:46.234Z,0
2017-08-14T01:35:47.957Z,0
2017-08-14T01:36:49.612Z,0
2017-08-14T01:37:51.350Z,0
2017-08-14T01:38:52.998Z,0
2017-08-14T01:39:54.755Z,0
2017-08-14T01:40:56.408Z,0
2017-08-14T01:41:58.130Z,0
2017-08-14T01:42:59.814Z,0
2017-08-14T01:44:01.543Z,0
2017-08-14T01:45:03.193Z,0
2017-08-14T01:46:04.937Z,0
2017-08-14T01:47:06.574Z,0
2017-08-14T01:48:08.287Z,0
2017-08-14T01:49:09.949Z,0
2017-08-14T01:50:11.600Z,0
2017-08-14T01:51:13.255Z,0
2017-08-14T01:52:14.961Z,0
2017-08-14T01:53:16.618Z,0
2017-08-14T01:54:18.274Z,0
2017-08-14T01:55:19.938Z,0
2017-08-14T01:56:21.603Z,0
2017-08-14T01:57:23.278Z,0
2017-08-14T01:58:24.945Z,0
2017-08-14T01:59:26.587Z,0
2017-08-14T02:00:28.238Z,0
2017-08-14T02:01:29.919Z,0
2017-08-14T02:02:31.575Z,0
2017-08-14T02:03:33.219Z,0
2017-08-14T02:04:34.863Z,0
2017-08-14T02:05:36.528Z,0
2017-08-14T02:06:38.201Z,0
2017-08-14T02:07:39.883Z,0
2017-08-14T02:08:41.631Z,0
2017-08-14T02:09:43.279Z,0
2017-08-14T02:10:44.945Z,0
2017-08-14T02:11:46.609Z,0
2017-08-14T02:12:48.398Z,0
2017-08-14T02:13:50.041Z,0
2017-08-14T02:14:51.888Z,0
2017-08-14T02:15:53.532Z,0
2017-08-14T02:16:55.376Z,0
2017-08-14T02:17:57.021Z,0
2017-08-14T02:18:58.870Z,0
2017-08-14T02:20:00.550Z,0
2017-08-14T02:21:02.392Z,0
2017-08-14T02:22:04.076Z,0
2017-08-14T02:23:05.785Z,0
2017-08-14T02:24:07.432Z,0
2017-08-14T02:25:09.172Z,0
2017-08-14T02:26:10.818Z,0
2017-08-14T02:27:12.549Z,0
2017-08-14T02:28:14.204Z,0
2017-08-14T02:29:15.942Z,0
2017-08-14T02:30:17.601Z,0
2017-08-14T02:31:19.382Z,0
2017-08-14T02:32:21.090Z,0
2017-08-14T02:33:22.857Z,0
2017-08-14T02:34:24.511Z,0
2017-08-14T02:35:26.241Z,0
2017-08-14T02:36:27.903Z,0
2017-08-14T02:37:29.624Z,0
2017-08-14T02:38:31.288Z,0
2017-08-14T02:39:33.001Z,0
2017-08-14T02:40:34.688Z,0
2017-08-14T02:41:36.396Z,0
2017-08-14T02:42:38.046Z,0
2017-08-14T02:43:39.800Z,0
2017-08-14T02:44:41.449Z,0
2017-08-14T02:45:43.201Z,0
2017-08-14T02:46:44.835Z,0
2017-08-14T02:47:46.585Z,0
2017-08-14T02:48:48.232Z,0
2017-08-14T02:49:49.970Z,0
2017-08-14T02:50:51.628Z,0
2017-08-14T02:51:53.360Z,0
2017-08-14T02:52:55.021Z,0
2017-08-14T02:53:56.667Z,0
2017-08-14T02:54:58.410Z,0
2017-08-14T02:56:00.055Z,0
2017-08-14T02:57:01.792Z,0
2017-08-14T02:58:03.436Z,0
2017-08-14T02:59:05.203Z,0
2017-08-14T03:00:06.860Z,0
2017-08-14T03:01:09.598Z,0
2017-08-14T03:02:11.246Z,0
2017-08-14T03:03:13.010Z,0
2017-08-14T03:04:14.669Z,0
2017-08-14T03:05:16.330Z,0
2017-08-14T03:06:18.129Z,0
2017-08-14T03:07:19.810Z,0
2017-08-14T03:08:21.521Z,0
2017-08-14T03:09:23.166Z,0
2017-08-14T03:10:24.913Z,0
2017-08-14T03:11:26.558Z,0
2017-08-14T03:12:28.307Z,0
2017-08-14T03:13:29.953Z,0
2017-08-14T03:14:31.710Z,0
2017-08-14T03:15:33.355Z,0
2017-08-14T03:16:35.041Z,0
2017-08-14T03:17:36.738Z,0
2017-08-14T03:18:38.424Z,0
2017-08-14T03:19:40.134Z,0
2017-08-14T03:20:41.818Z,0
2017-08-14T03:21:43.556Z,0
2017-08-14T03:22:45.263Z,0
2017-08-14T03:23:47.026Z,0
2017-08-14T03:24:48.695Z,0
2017-08-14T03:25:50.348Z,0
2017-08-14T03:26:51.987Z,0
2017-08-14T03:27:53.702Z,0
2017-08-14T03:28:55.375Z,0
2017-08-14T03:29:57.031Z,0
2017-08-14T03:30:58.678Z,0
2017-08-14T03:32:00.328Z,0
2017-08-14T03:33:01.986Z,0
2017-08-14T03:34:03.675Z,0
2017-08-14T03:35:05.616Z,0
2017-08-14T03:36:07.398Z,0
2017-08-14T03:37:09.043Z,0
2017-08-14T03:38:10.793Z,0
2017-08-14T03:39:12.442Z,0
2017-08-14T03:40:14.162Z,0
2017-08-14T03:41:15.822Z,0
2017-08-14T03:42:17.569Z,0
2017-08-14T03:43:19.254Z,0
2017-08-14T03:44:20.970Z,0
2017-08-14T03:45:22.614Z,4
2017-08-14T03:46:24.337Z,4
2017-08-14T03:47:25.997Z,4
2017-08-14T03:48:27.766Z,0
2017-08-14T03:49:29.416Z,4
2017-08-14T03:50:31.130Z,4
2017-08-14T03:51:32.786Z,4
2017-08-14T03:52:34.442Z,4
2017-08-14T03:53:36.197Z,4
2017-08-14T03:54:37.877Z,8
2017-08-14T03:55:39.626Z,8
2017-08-14T03:56:41.286Z,8
2017-08-14T03:57:43.072Z,8
2017-08-14T03:58:44.731Z,12
2017-08-14T03:59:46.452Z,12
2017-08-14T04:00:48.104Z,12
2017-08-14T04:01:49.764Z,16
2017-08-14T04:02:51.529Z,20
2017-08-14T04:03:53.187Z,20
2017-08-14T04:04:54.979Z,20
2017-08-14T04:05:56.626Z,24
2017-08-14T04:06:58.272Z,24
2017-08-14T04:08:00.018Z,28
2017-08-14T04:09:01.686Z,32
2017-08-14T04:19:12.124Z,72
2017-08-14T04:20:13.766Z,80
2017-08-14T04:21:15.413Z,84
2017-08-14T04:22:17.060Z,92
2017-08-14T04:23:18.742Z,96
2017-08-14T04:24:20.408Z,104
2017-08-14T04:25:22.060Z,112
2017-08-14T04:26:23.712Z,120
2017-08-14T04:27:25.358Z,128
2017-08-14T04:28:27.007Z,132
2017-08-14T04:29:28.680Z,140
2017-08-14T04:30:30.325Z,148
2017-08-14T04:31:32.058Z,156
2017-08-14T04:32:33.695Z,168
2017-08-14T04:33:35.403Z,176
2017-08-14T04:34:37.058Z,184
2017-08-14T04:35:38.711Z,200
2017-08-14T04:36:40.351Z,204
2017-08-14T04:37:42.043Z,216
2017-08-14T04:38:43.763Z,228
2017-08-14T04:39:45.410Z,236
2017-08-14T04:40:47.073Z,248
2017-08-14T04:41:48.755Z,256
2017-08-14T04:42:50.407Z,268
2017-08-14T04:43:52.054Z,276
2017-08-14T04:44:53.706Z,288
2017-08-14T04:45:55.402Z,296
2017-08-14T04:46:57.220Z,308
2017-08-14T04:47:58.892Z,320
2017-08-14T04:49:00.541Z,332
2017-08-14T04:50:02.347Z,344
2017-08-14T04:51:04.003Z,356
2017-08-14T04:52:05.662Z,368
2017-08-14T04:53:07.308Z,380
2017-08-14T04:54:08.980Z,392
2017-08-14T04:55:10.684Z,404
2017-08-14T04:56:12.345Z,412
2017-08-14T04:57:14.014Z,428
2017-08-14T04:58:15.665Z,440
2017-08-14T04:59:17.328Z,448
2017-08-14T05:00:18.989Z,460
2017-08-14T05:01:20.639Z,472
2017-08-14T05:02:22.334Z,484
2017-08-14T05:03:24.148Z,496
2017-08-14T05:04:25.797Z,508
2017-08-14T05:05:27.556Z,524
2017-08-14T05:06:29.236Z,536
2017-08-14T05:07:30.891Z,548
2017-08-14T05:08:32.545Z,560
2017-08-14T05:09:34.225Z,568
2017-08-14T05:10:35.847Z,580
2017-08-14T05:11:37.491Z,592
2017-08-14T05:12:39.206Z,600
2017-08-14T05:13:40.854Z,616
2017-08-14T05:14:42.504Z,624
2017-08-14T05:15:44.297Z,636
2017-08-14T05:16:45.975Z,648
2017-08-14T05:17:47.800Z,660
2017-08-14T05:18:49.447Z,672
2017-08-14T05:19:51.188Z,684
2017-08-14T05:20:52.872Z,688
2017-08-14T05:21:54.520Z,700
2017-08-14T05:22:56.194Z,708
2017-08-14T05:23:57.848Z,716
2017-08-14T05:24:59.532Z,728
2017-08-14T05:26:01.359Z,740
2017-08-14T05:27:03.018Z,760
2017-08-14T05:28:04.749Z,768
2017-08-14T05:29:06.400Z,784
2017-08-14T05:30:08.054Z,792
2017-08-14T05:31:09.715Z,800
2017-08-14T05:32:11.359Z,812
2017-08-14T05:33:13.014Z,824
2017-08-14T05:34:14.672Z,836
2017-08-14T05:35:16.338Z,844
2017-08-14T05:36:18.038Z,852
2017-08-14T05:37:19.725Z,860
2017-08-14T05:38:21.381Z,868
2017-08-14T05:39:24.210Z,876
2017-08-14T05:40:25.866Z,884
2017-08-14T05:41:27.685Z,888
2017-08-14T05:42:29.332Z,892
2017-08-14T05:43:31.062Z,896
2017-08-14T05:44:32.721Z,912
2017-08-14T05:45:34.401Z,932
2017-08-14T05:46:36.239Z,948
2017-08-14T05:47:37.893Z,960
2017-08-14T05:48:39.702Z,968
2017-08-14T05:49:41.349Z,968
2017-08-14T05:50:42.995Z,976
2017-08-14T05:51:44.724Z,980
2017-08-14T05:52:46.488Z,972
2017-08-14T05:53:48.171Z,968
2017-08-14T05:54:49.985Z,960
2017-08-14T05:55:51.682Z,960
2017-08-14T05:56:53.490Z,964
2017-08-14T05:57:55.146Z,956
2017-08-14T05:58:56.978Z,940
2017-08-14T05:59:58.633Z,924
2017-08-14T06:01:00.512Z,900
2017-08-14T06:02:02.146Z,876
2017-08-14T06:03:03.796Z,864
2017-08-14T06:04:05.479Z,856
2017-08-14T06:05:07.130Z,856
2017-08-14T06:06:08.928Z,868
2017-08-14T06:07:10.614Z,872
2017-08-14T06:08:12.409Z,872
2017-08-14T06:09:14.061Z,880
2017-08-14T06:10:17.839Z,884
2017-08-14T06:11:19.543Z,892
2017-08-14T06:12:21.310Z,896
2017-08-14T06:13:22.982Z,908
2017-08-14T06:14:24.718Z,908
2017-08-14T06:15:26.361Z,892
2017-08-14T06:16:28.114Z,868
2017-08-14T06:17:29.774Z,852
2017-08-14T06:18:31.515Z,860
2017-08-14T06:19:33.175Z,884
2017-08-14T06:20:34.993Z,920
2017-08-14T06:21:36.662Z,956
2017-08-14T06:22:38.386Z,980
2017-08-14T06:23:40.036Z,984
2017-08-14T06:24:41.779Z,992
2017-08-14T06:25:43.433Z,988
2017-08-14T06:26:45.084Z,976
2017-08-14T06:27:46.739Z,960
2017-08-14T06:28:48.390Z,952
2017-08-14T06:29:50.033Z,944
2017-08-14T06:30:51.712Z,948
2017-08-14T06:31:53.375Z,952
2017-08-14T06:32:55.024Z,960
2017-08-14T06:33:56.791Z,960
2017-08-14T06:34:58.442Z,956
2017-08-14T06:36:01.613Z,952
2017-08-14T06:37:04.107Z,948
2017-08-14T06:38:06.199Z,952
2017-08-14T06:39:07.853Z,948
2017-08-14T06:40:10.669Z,936
2017-08-14T06:41:12.313Z,924
2017-08-14T06:47:12.512Z,972
2017-08-14T07:10:48.386Z,964
2017-08-14T07:11:56.933Z,960
2017-08-14T07:12:58.602Z,956
2017-08-14T07:14:00.247Z,956
2017-08-14T07:16:12.578Z,952
2017-08-14T07:17:14.302Z,952
2017-08-14T07:18:27.080Z,952
2017-08-14T07:19:28.729Z,948
2017-08-14T07:20:35.192Z,948
2017-08-14T07:21:37.421Z,948
2017-08-14T07:29:49.716Z,932
2017-08-14T07:30:51.462Z,928
2017-08-14T07:31:53.112Z,928
2017-08-14T07:32:54.860Z,924
2017-08-14T07:33:56.517Z,920
2017-08-14T07:34:58.244Z,916
2017-08-14T07:35:59.905Z,912
2017-08-14T07:37:01.660Z,912
2017-08-14T07:38:03.330Z,912
2017-08-14T07:39:16.850Z,912
2017-08-14T07:40:18.514Z,908
2017-08-14T08:46:08.681Z,976
2017-08-14T08:47:16.401Z,980
2017-08-14T08:48:18.221Z,980
2017-08-14T08:49:21.073Z,980
2017-08-14T08:50:22.848Z,976
2017-08-14T08:51:24.833Z,980
2017-08-14T08:52:27.415Z,980
2017-08-14T08:53:29.403Z,976
2017-08-14T08:54:31.075Z,976
2017-08-14T08:55:32.775Z,976
2017-08-14T08:56:34.457Z,976
2017-08-14T08:57:36.295Z,976
2017-08-14T08:58:38.026Z,976
2017-08-14T08:59:40.798Z,976
2017-08-14T09:00:42.564Z,972
2017-08-14T09:01:44.283Z,972
2017-08-14T09:02:48.149Z,972
2017-08-14T09:03:49.840Z,972
2017-08-14T09:04:51.626Z,968
2017-08-14T09:05:53.611Z,964
2017-08-14T09:06:55.394Z,964
2017-08-14T09:07:57.047Z,960
2017-08-14T09:08:58.785Z,964
2017-08-14T09:10:00.449Z,968
2017-08-14T09:11:03.558Z,964
2017-08-14T09:12:05.661Z,960
2017-08-14T09:13:07.461Z,960
2017-08-14T09:14:09.114Z,960
2017-08-14T09:15:10.917Z,956
2017-08-14T09:16:12.866Z,956
2017-08-14T09:17:14.810Z,956
2017-08-14T09:18:16.574Z,952
2017-08-14T09:19:18.250Z,952
2017-08-14T09:20:19.913Z,948
2017-08-14T09:21:21.722Z,940
2017-08-14T09:22:23.478Z,936
2017-08-14T09:23:26.368Z,936
2017-08-14T09:24:28.278Z,940
2017-08-14T09:25:34.099Z,952
2017-08-14T09:26:35.935Z,932
2017-08-14T09:27:43.254Z,932
2017-08-14T09:28:44.956Z,928
2017-08-14T09:29:47.764Z,928
2017-08-14T09:30:49.483Z,928
2017-08-14T09:31:52.365Z,924
2017-08-14T09:32:54.110Z,920
2017-08-14T09:33:55.896Z,920
2017-08-14T09:34:57.547Z,920
2017-08-14T09:35:59.281Z,920
2017-08-14T09:37:00.950Z,920
2017-08-14T09:38:07.285Z,916
2017-08-14T09:39:09.054Z,912
2017-08-14T09:40:10.747Z,912
2017-08-14T09:41:12.401Z,912
2017-08-14T09:42:14.593Z,912
2017-08-14T09:43:16.787Z,912
2017-08-14T09:44:18.632Z,916
2017-08-14T09:45:20.280Z,916
2017-08-14T09:46:21.958Z,916
2017-08-14T09:47:23.918Z,912
2017-08-14T09:48:25.861Z,908
2017-08-14T09:49:27.516Z,916
2017-08-14T09:50:29.265Z,904
2017-08-14T09:51:30.899Z,900
2017-08-14T09:52:33.956Z,900
2017-08-14T09:53:35.558Z,896
2017-08-14T09:54:37.312Z,884
2017-08-14T09:55:39.419Z,888
2017-08-14T09:56:41.640Z,884
2017-08-14T09:57:43.908Z,884
2017-08-14T09:58:46.419Z,888
2017-08-14T09:59:48.109Z,876
2017-08-14T10:00:50.633Z,872
2017-08-14T10:01:52.456Z,884
2017-08-14T10:02:54.146Z,880
2017-08-14T10:03:55.932Z,876
2017-08-14T10:04:57.768Z,872
2017-08-14T10:05:59.919Z,868
2017-08-14T10:07:02.374Z,860
2017-08-14T10:08:03.855Z,864
2017-08-14T10:09:05.778Z,868
2017-08-14T10:10:07.494Z,860
2017-08-14T10:11:09.255Z,856
2017-08-14T10:12:11.045Z,848
2017-08-14T10:13:12.768Z,840
2017-08-14T10:14:14.551Z,840
2017-08-14T10:15:16.327Z,836
2017-08-14T10:16:18.042Z,832
2017-08-14T10:17:19.771Z,828
2017-08-14T10:18:21.432Z,820
2017-08-14T10:19:23.269Z,816
2017-08-14T10:20:25.063Z,816
2017-08-14T10:21:26.994Z,816
2017-08-14T10:22:29.097Z,812
2017-08-14T10:23:31.542Z,812
2017-08-14T10:24:33.567Z,804
2017-08-14T10:25:35.314Z,800
2017-08-14T10:26:39.663Z,792
2017-08-14T10:27:42.639Z,796
2017-08-14T10:28:46.620Z,804
2017-08-14T10:29:48.319Z,792
2017-08-14T10:30:54.843Z,788
2017-08-14T10:31:56.497Z,784
2017-08-14T10:32:58.274Z,784
2017-08-14T10:34:00.012Z,780
2017-08-14T10:35:02.857Z,776
2017-08-14T10:36:04.627Z,772
2017-08-14T10:37:06.322Z,764
2017-08-14T10:38:08.728Z,756
2017-08-14T10:39:21.314Z,756
2017-08-14T10:40:23.050Z,756
2017-08-14T10:41:24.771Z,752
2017-08-14T10:42:26.554Z,752
2017-08-14T10:43:33.367Z,748
2017-08-14T10:44:35.070Z,744
2017-08-14T10:45:43.799Z,744
2017-08-14T10:46:45.615Z,744
2017-08-14T10:47:58.390Z,736
2017-08-14T10:49:00.080Z,736
2017-08-14T10:50:08.804Z,736
2017-08-14T10:51:10.732Z,732
2017-08-14T10:52:12.505Z,732
2017-08-14T10:53:14.139Z,724
2017-08-14T10:54:16.932Z,724
2017-08-14T10:55:18.655Z,716
2017-08-14T10:56:21.477Z,716
2017-08-14T10:57:23.223Z,712
2017-08-14T10:58:25.095Z,716
2017-08-14T10:59:26.815Z,716
2017-08-14T11:00:29.559Z,712
2017-08-14T11:01:31.326Z,716
2017-08-14T11:02:34.012Z,712
2017-08-14T11:03:35.758Z,712
2017-08-14T11:04:44.270Z,704
2017-08-14T11:05:46.036Z,704
2017-08-14T11:06:49.794Z,704
2017-08-14T11:07:51.507Z,700
2017-08-14T11:08:53.289Z,696
2017-08-14T11:09:55.053Z,700
2017-08-14T11:10:56.948Z,704
2017-08-14T11:11:58.698Z,696
2017-08-14T11:13:01.500Z,700
2017-08-14T11:14:03.220Z,696
2017-08-14T11:15:07.059Z,696
2017-08-14T11:16:09.311Z,692
2017-08-14T11:17:12.118Z,700
2017-08-14T11:18:13.839Z,712
2017-08-14T11:19:21.442Z,708
2017-08-14T11:20:23.134Z,708
2017-08-14T11:21:24.824Z,704
2017-08-14T11:22:26.594Z,700
2017-08-14T11:23:39.347Z,696
2017-08-14T11:24:41.075Z,692
2017-08-14T11:25:42.835Z,692
2017-08-14T11:26:44.582Z,684
2017-08-14T11:27:47.353Z,680
2017-08-14T11:28:49.079Z,676
2017-08-14T11:29:51.931Z,684
2017-08-14T11:30:53.759Z,684
2017-08-14T11:31:57.620Z,684
2017-08-14T11:32:59.339Z,688
2017-08-14T11:34:03.331Z,688
2017-08-14T11:35:05.094Z,684
2017-08-14T11:36:06.936Z,692
2017-08-14T11:37:08.698Z,696
2017-08-14T11:38:10.531Z,700
2017-08-14T11:39:12.281Z,696
2017-08-14T11:40:14.275Z,632
2017-08-14T11:41:16.955Z,704
2017-08-14T11:42:18.749Z,528
2017-08-14T11:43:20.520Z,620
2017-08-14T11:44:22.337Z,708
2017-08-14T11:45:24.109Z,708
2017-08-14T11:46:25.860Z,700
2017-08-14T11:47:27.523Z,700
2017-08-14T11:48:29.263Z,716
2017-08-14T11:49:31.179Z,708
2017-08-14T11:50:32.957Z,712
2017-08-14T11:51:34.674Z,716
2017-08-14T11:52:36.468Z,724
2017-08-14T11:53:38.196Z,728
2017-08-14T11:54:40.192Z,736
2017-08-14T11:55:42.072Z,740
2017-08-14T11:56:44.028Z,744
2017-08-14T11:57:45.808Z,760
2017-08-14T11:58:47.559Z,752
2017-08-14T11:59:49.281Z,740
2017-08-14T12:00:51.017Z,736
2017-08-14T12:01:52.691Z,804
2017-08-14T12:02:54.738Z,980
2017-08-14T12:03:57.346Z,1080
2017-08-14T12:05:01.107Z,1044
2017-08-14T12:06:02.822Z,996
2017-08-14T12:07:06.715Z,1116
2017-08-14T12:08:08.445Z,1024
2017-08-14T12:09:11.288Z,1008
2017-08-14T12:10:13.008Z,908
2017-08-14T12:11:14.939Z,812
2017-08-14T12:12:16.725Z,768
2017-08-14T12:13:18.413Z,764
2017-08-14T12:14:20.215Z,784
2017-08-14T12:15:22.025Z,624
2017-08-14T12:16:23.836Z,780
2017-08-14T12:17:25.593Z,788
2017-08-14T12:18:27.458Z,900
2017-08-14T12:19:29.146Z,1048
2017-08-14T12:20:31.014Z,1084
2017-08-14T12:21:32.673Z,944
2017-08-14T12:22:34.508Z,892
2017-08-14T12:23:36.232Z,856
2017-08-14T12:24:39.116Z,896
2017-08-14T12:25:40.841Z,916
2017-08-14T12:26:53.412Z,792
2017-08-14T12:27:55.145Z,700
2017-08-14T12:29:08.750Z,664
2017-08-14T12:30:10.489Z,872
2017-08-14T12:31:12.299Z,1184
2017-08-14T12:32:14.109Z,1240
2017-08-14T12:33:15.856Z,1232
2017-08-14T12:34:17.679Z,1268
2017-08-14T12:35:19.455Z,1520
2017-08-14T12:36:21.879Z,1640
2017-08-14T12:37:23.643Z,1508
2017-08-14T12:38:25.461Z,1488
2017-08-14T12:39:27.181Z,1480
2017-08-14T12:40:30.947Z,1508
2017-08-14T12:41:32.740Z,1376
2017-08-14T12:42:39.401Z,1224
2017-08-14T12:43:41.300Z,1252
2017-08-14T12:44:43.050Z,1156
2017-08-14T12:45:50.390Z,1220
2017-08-14T12:46:52.234Z,1312
2017-08-14T12:47:55.020Z,1328
2017-08-14T12:48:56.863Z,1308
2017-08-14T12:49:59.626Z,1308
2017-08-14T12:51:01.482Z,1168
2017-08-14T12:52:03.138Z,1172
2017-08-14T12:53:04.973Z,1392
2017-08-14T12:54:06.706Z,1556
2017-08-14T12:55:09.513Z,1460
2017-08-14T12:56:18.003Z,1484
2017-08-14T12:57:19.748Z,1488
2017-08-14T12:58:22.127Z,1512
2017-08-14T12:59:25.891Z,1652
2017-08-14T13:00:27.752Z,1728
2017-08-14T13:01:29.523Z,1844
2017-08-14T13:02:31.175Z,1780
2017-08-14T13:03:32.937Z,1632
2017-08-14T13:04:34.657Z,1736
2017-08-14T13:05:36.384Z,1824
2017-08-14T13:06:38.275Z,1884
2017-08-14T13:07:40.028Z,1944
2017-08-14T13:08:41.896Z,1692
2017-08-14T13:09:43.583Z,1720
2017-08-14T13:10:45.331Z,1368
2017-08-14T13:11:47.097Z,1324
2017-08-14T13:12:48.871Z,1120
2017-08-14T13:13:50.632Z,1012
2017-08-14T13:14:52.379Z,1048
2017-08-14T13:15:54.161Z,996
2017-08-14T13:16:55.860Z,1116
2017-08-14T13:17:57.633Z,1316
2017-08-14T13:18:59.467Z,1576
2017-08-14T13:20:01.242Z,1696
2017-08-14T13:21:02.966Z,1692
2017-08-14T13:22:04.708Z,1520
2017-08-14T13:23:06.464Z,1300
2017-08-14T13:24:08.210Z,1172
2017-08-14T13:25:09.899Z,1008
2017-08-14T13:26:11.624Z,1008
2017-08-14T13:27:13.361Z,1180
2017-08-14T13:28:15.149Z,1272
2017-08-14T13:29:18.959Z,1436
2017-08-14T13:30:20.698Z,1392
2017-08-14T13:31:22.442Z,1348
2017-08-14T13:32:24.111Z,1488
2017-08-14T13:33:25.905Z,1456
2017-08-14T13:34:28.085Z,1536
2017-08-14T13:35:29.834Z,1452
2017-08-14T13:36:31.677Z,1368
2017-08-14T13:37:33.399Z,1112
2017-08-14T13:38:35.109Z,936
2017-08-14T13:39:36.935Z,900
2017-08-14T13:40:38.798Z,896
2017-08-14T13:41:40.481Z,824
2017-08-14T13:42:43.316Z,772
2017-08-14T13:43:46.745Z,740
2017-08-14T13:44:48.508Z,740
2017-08-14T13:45:53.935Z,708
2017-08-14T13:46:55.625Z,656
2017-08-14T13:47:57.353Z,624
2017-08-14T13:49:01.983Z,616
2017-08-14T13:50:06.224Z,608
2017-08-14T13:51:07.941Z,612
2017-08-14T13:52:09.686Z,616
2017-08-14T13:53:12.661Z,620
2017-08-14T13:54:16.611Z,628
2017-08-14T13:55:21.645Z,644
2017-08-14T13:56:25.942Z,648
2017-08-14T13:57:29.276Z,648
2017-08-14T13:58:31.038Z,696
2017-08-14T13:59:32.899Z,752
2017-08-14T14:00:34.609Z,780
2017-08-14T14:01:36.500Z,780
2017-08-14T14:02:38.289Z,748
2017-08-14T14:03:40.049Z,728
2017-08-14T14:04:41.790Z,720
2017-08-14T14:05:43.586Z,752
2017-08-14T14:06:46.663Z,780
2017-08-14T14:07:48.482Z,800
2017-08-14T14:08:50.211Z,808
2017-08-14T14:09:51.995Z,788
2017-08-14T14:10:53.708Z,768
2017-08-14T14:11:55.474Z,760
2017-08-14T14:12:57.176Z,764
2017-08-14T14:13:59.054Z,748
2017-08-14T14:15:00.745Z,736
2017-08-14T14:16:02.497Z,716
2017-08-14T14:17:04.246Z,704
2017-08-14T14:18:05.972Z,696
2017-08-14T14:19:07.672Z,692
2017-08-14T14:20:10.445Z,668
2017-08-14T14:21:12.154Z,672
2017-08-14T14:22:13.983Z,684
2017-08-14T14:23:15.689Z,688
2017-08-14T14:24:17.442Z,684
2017-08-14T14:25:19.098Z,684
2017-08-14T14:26:22.893Z,680
2017-08-14T14:27:24.627Z,668
2017-08-14T14:28:26.451Z,656
2017-08-14T14:29:28.161Z,656
2017-08-14T14:30:29.813Z,652
2017-08-14T14:31:31.664Z,640
2017-08-14T14:32:33.384Z,652
2017-08-14T14:33:35.226Z,656
2017-08-14T14:34:36.962Z,652
2017-08-14T14:35:39.278Z,668
2017-08-14T14:36:41.002Z,796
2017-08-14T14:37:42.865Z,752
2017-08-14T14:38:44.581Z,684
2017-08-14T14:39:46.426Z,640
2017-08-14T14:40:48.253Z,652
2017-08-14T14:41:50.011Z,664
2017-08-14T14:42:52.074Z,640
2017-08-14T14:43:54.774Z,624
2017-08-14T14:44:56.501Z,644
2017-08-14T14:45:58.241Z,676
2017-08-14T14:47:00.693Z,672
2017-08-14T14:48:02.382Z,676
2017-08-14T14:49:04.119Z,640
2017-08-14T14:50:08.281Z,632
2017-08-14T14:51:11.521Z,660
2017-08-14T14:52:13.573Z,680
2017-08-14T14:53:15.192Z,700
2017-08-14T15:05:09.276Z,616
2017-08-14T15:06:11.062Z,620
2017-08-14T15:07:17.730Z,624
2017-08-14T15:08:19.420Z,632
2017-08-14T15:09:27.839Z,644
2017-08-14T15:10:29.557Z,652
2017-08-14T15:11:46.587Z,656
2017-08-14T15:12:48.395Z,652
2017-08-14T15:14:06.690Z,628
2017-08-14T15:15:08.383Z,608
2017-08-14T15:16:25.820Z,628
2017-08-14T15:17:27.539Z,632
2017-08-14T15:19:43.873Z,588
2017-08-14T15:45:01.788Z,608
2017-08-14T15:46:03.588Z,600
2017-08-14T15:47:05.319Z,596
2017-08-14T15:48:07.123Z,612
2017-08-14T15:49:08.853Z,648
2017-08-14T15:50:10.633Z,672
2017-08-14T15:51:12.391Z,736
2017-08-14T15:52:14.223Z,752
2017-08-14T15:53:15.955Z,800
2017-08-14T15:54:17.732Z,860
2017-08-14T15:55:19.395Z,928
2017-08-14T15:56:21.221Z,936
2017-08-14T15:57:22.949Z,908
2017-08-14T15:58:24.741Z,784
2017-08-14T15:59:26.469Z,716
2017-08-14T16:00:28.126Z,672
2017-08-14T16:01:29.959Z,708
2017-08-14T16:02:31.725Z,808
2017-08-14T16:03:33.524Z,872
2017-08-14T16:04:35.247Z,828
2017-08-14T16:05:37.072Z,848
2017-08-14T16:06:38.820Z,808
2017-08-14T16:07:40.539Z,912
2017-08-14T16:08:42.284Z,820
2017-08-14T16:09:44.059Z,768
2017-08-14T16:10:45.867Z,688
2017-08-14T16:11:47.653Z,676
2017-08-14T16:12:49.425Z,728
2017-08-14T16:13:51.200Z,684
2017-08-14T16:14:52.947Z,604
2017-08-14T16:15:54.656Z,588
2017-08-14T16:16:56.403Z,612
2017-08-14T16:17:58.142Z,656
2017-08-14T16:18:59.921Z,652
2017-08-14T16:20:01.652Z,588
2017-08-14T16:21:03.383Z,736
2017-08-14T16:22:05.105Z,580
2017-08-14T16:23:06.885Z,544
2017-08-14T16:24:08.541Z,548
2017-08-14T16:25:10.299Z,568
2017-08-14T16:26:12.069Z,556
2017-08-14T16:27:13.797Z,536
2017-08-14T16:28:15.522Z,524
2017-08-14T16:29:17.276Z,524
2017-08-14T16:30:19.041Z,536
2017-08-14T16:31:20.849Z,524
2017-08-14T16:32:22.601Z,524
2017-08-14T16:33:24.412Z,524
2017-08-14T16:34:26.070Z,536
2017-08-14T16:35:28.904Z,556
2017-08-14T16:36:30.649Z,548
2017-08-14T16:37:32.463Z,544
2017-08-14T16:38:34.185Z,532
2017-08-14T16:39:35.877Z,532
2017-08-14T16:40:37.720Z,560
2017-08-14T16:41:39.474Z,628
2017-08-14T16:42:41.216Z,684
2017-08-14T16:43:54.515Z,720
2017-08-14T16:44:56.221Z,1048
2017-08-14T16:46:42.161Z,262140
2017-08-14T16:47:43.853Z,262140
2017-08-14T16:50:24.375Z,262140
2017-08-14T16:51:26.100Z,262140
2017-08-14T16:52:27.851Z,179000
2017-08-14T16:53:29.553Z,179000
2017-08-14T16:54:31.246Z,179000
2017-08-14T16:55:32.979Z,179000
2017-08-14T16:56:34.722Z,179000
2017-08-14T16:57:36.459Z,179000